Dhahran, Dhahran Airfield (OEDR)

NameDhahran Airfield
CityDhahran
CountrySaudi Arabia
ICAOOEDR
IATADHA
Altitude8 m
CoordinatesGoogle Map
Live Air TrafficLiveATC.net
METAROEDR 092300Z VRB02KT CAVOK 19/12 Q1015 NOSIG
2018-12-09 23:00:00 Wind: North (0°) 1.03 m/s - Visibility: > 10000 m - Weather: CAVOK - Temperature: 19 °C - Dew point: 12 °C - Humidity: 64% - Pressure: 1015 hPa
Statistics

The table below shows the detailed information of all flights to/from Dhahran, Dhahran Airfield (OEDR).